sensor_id;sensor_type;location;lat;lon;timestamp;P1;durP1;ratioP1;P2;durP2;ratioP2
18917;SDS011;9591;52.742;13.650;2023-04-24T00:01:50;6.47;;;5.03;;
18917;SDS011;9591;52.742;13.650;2023-04-24T00:04:37;7.13;;;4.93;;
18917;SDS011;9591;52.742;13.650;2023-04-24T00:07:27;8.53;;;5.07;;
18917;SDS011;9591;52.742;13.650;2023-04-24T00:10:13;6.47;;;4.83;;
18917;SDS011;9591;52.742;13.650;2023-04-24T00:13:00;6.63;;;4.47;;
18917;SDS011;9591;52.742;13.650;2023-04-24T00:15:47;7.70;;;4.93;;
18917;SDS011;9591;52.742;13.650;2023-04-24T00:18:33;7.57;;;4.80;;
18917;SDS011;9591;52.742;13.650;2023-04-24T00:21:20;10.17;;;4.77;;
18917;SDS011;9591;52.742;13.650;2023-04-24T00:24:12;7.77;;;4.63;;
18917;SDS011;9591;52.742;13.650;2023-04-24T00:26:58;8.53;;;5.33;;
18917;SDS011;9591;52.742;13.650;2023-04-24T00:29:46;9.63;;;4.90;;
18917;SDS011;9591;52.742;13.650;2023-04-24T00:32:32;8.23;;;4.63;;
18917;SDS011;9591;52.742;13.650;2023-04-24T00:35:19;8.57;;;5.10;;
18917;SDS011;9591;52.742;13.650;2023-04-24T00:38:06;10.20;;;5.40;;
18917;SDS011;9591;52.742;13.650;2023-04-24T00:40:54;8.33;;;5.30;;
18917;SDS011;9591;52.742;13.650;2023-04-24T00:43:41;8.50;;;5.33;;
18917;SDS011;9591;52.742;13.650;2023-04-24T00:46:28;10.33;;;5.83;;
18917;SDS011;9591;52.742;13.650;2023-04-24T00:49:16;10.30;;;5.93;;
18917;SDS011;9591;52.742;13.650;2023-04-24T00:52:04;10.83;;;5.57;;
18917;SDS011;9591;52.742;13.650;2023-04-24T00:54:53;13.07;;;5.23;;
18917;SDS011;9591;52.742;13.650;2023-04-24T00:57:41;9.17;;;5.73;;
18917;SDS011;9591;52.742;13.650;2023-04-24T01:00:28;12.20;;;5.73;;
18917;SDS011;9591;52.742;13.650;2023-04-24T01:03:15;9.23;;;5.97;;
18917;SDS011;9591;52.742;13.650;2023-04-24T01:06:03;10.73;;;6.37;;
18917;SDS011;9591;52.742;13.650;2023-04-24T01:08:51;9.73;;;5.87;;
18917;SDS011;9591;52.742;13.650;2023-04-24T01:11:38;9.30;;;5.90;;
18917;SDS011;9591;52.742;13.650;2023-04-24T01:14:30;13.17;;;6.47;;
18917;SDS011;9591;52.742;13.650;2023-04-24T01:17:17;9.53;;;5.97;;
18917;SDS011;9591;52.742;13.650;2023-04-24T01:20:05;10.97;;;5.70;;
18917;SDS011;9591;52.742;13.650;2023-04-24T01:22:55;10.87;;;6.37;;
18917;SDS011;9591;52.742;13.650;2023-04-24T01:25:42;9.23;;;5.73;;
18917;SDS011;9591;52.742;13.650;2023-04-24T01:28:29;10.00;;;6.40;;
18917;SDS011;9591;52.742;13.650;2023-04-24T01:31:16;10.73;;;5.73;;
18917;SDS011;9591;52.742;13.650;2023-04-24T01:34:03;11.27;;;6.63;;
18917;SDS011;9591;52.742;13.650;2023-04-24T01:36:50;14.17;;;6.57;;
18917;SDS011;9591;52.742;13.650;2023-04-24T01:39:38;10.60;;;6.73;;
18917;SDS011;9591;52.742;13.650;2023-04-24T01:42:26;8.10;;;6.00;;
18917;SDS011;9591;52.742;13.650;2023-04-24T01:45:13;11.57;;;6.63;;
18917;SDS011;9591;52.742;13.650;2023-04-24T01:47:59;8.63;;;6.03;;
18917;SDS011;9591;52.742;13.650;2023-04-24T01:50:46;11.07;;;6.30;;
18917;SDS011;9591;52.742;13.650;2023-04-24T01:53:33;7.67;;;5.50;;
18917;SDS011;9591;52.742;13.650;2023-04-24T01:56:22;10.87;;;6.60;;
18917;SDS011;9591;52.742;13.650;2023-04-24T01:59:09;9.30;;;5.80;;
18917;SDS011;9591;52.742;13.650;2023-04-24T02:01:57;9.80;;;6.27;;
18917;SDS011;9591;52.742;13.650;2023-04-24T02:04:44;10.63;;;6.07;;
18917;SDS011;9591;52.742;13.650;2023-04-24T02:07:30;12.03;;;6.83;;
18917;SDS011;9591;52.742;13.650;2023-04-24T02:10:17;10.77;;;6.63;;
18917;SDS011;9591;52.742;13.650;2023-04-24T02:13:06;12.37;;;6.37;;
18917;SDS011;9591;52.742;13.650;2023-04-24T02:15:52;11.33;;;6.43;;
18917;SDS011;9591;52.742;13.650;2023-04-24T02:18:41;12.07;;;7.17;;
18917;SDS011;9591;52.742;13.650;2023-04-24T02:21:27;14.40;;;6.70;;
18917;SDS011;9591;52.742;13.650;2023-04-24T02:24:15;12.93;;;6.83;;
18917;SDS011;9591;52.742;13.650;2023-04-24T02:27:02;13.63;;;6.47;;
18917;SDS011;9591;52.742;13.650;2023-04-24T02:29:50;10.80;;;6.20;;
18917;SDS011;9591;52.742;13.650;2023-04-24T02:32:37;8.53;;;5.60;;
18917;SDS011;9591;52.742;13.650;2023-04-24T02:35:27;11.83;;;6.87;;
18917;SDS011;9591;52.742;13.650;2023-04-24T02:38:14;12.23;;;6.37;;
18917;SDS011;9591;52.742;13.650;2023-04-24T02:41:01;15.37;;;6.40;;
18917;SDS011;9591;52.742;13.650;2023-04-24T02:43:51;14.40;;;6.73;;
18917;SDS011;9591;52.742;13.650;2023-04-24T02:46:39;13.90;;;6.10;;
18917;SDS011;9591;52.742;13.650;2023-04-24T02:49:26;9.57;;;5.63;;
18917;SDS011;9591;52.742;13.650;2023-04-24T02:52:13;9.37;;;5.83;;
18917;SDS011;9591;52.742;13.650;2023-04-24T02:55:02;10.23;;;5.93;;
18917;SDS011;9591;52.742;13.650;2023-04-24T02:57:48;9.77;;;6.20;;
18917;SDS011;9591;52.742;13.650;2023-04-24T03:00:35;11.97;;;6.73;;
18917;SDS011;9591;52.742;13.650;2023-04-24T03:03:23;10.83;;;6.23;;
18917;SDS011;9591;52.742;13.650;2023-04-24T03:06:10;12.23;;;6.60;;
18917;SDS011;9591;52.742;13.650;2023-04-24T03:08:57;11.33;;;6.97;;
18917;SDS011;9591;52.742;13.650;2023-04-24T03:11:44;12.57;;;6.63;;
18917;SDS011;9591;52.742;13.650;2023-04-24T03:14:31;9.97;;;6.13;;
18917;SDS011;9591;52.742;13.650;2023-04-24T03:17:17;12.80;;;6.83;;
18917;SDS011;9591;52.742;13.650;2023-04-24T03:20:06;13.63;;;6.47;;
18917;SDS011;9591;52.742;13.650;2023-04-24T03:22:55;11.00;;;6.57;;
18917;SDS011;9591;52.742;13.650;2023-04-24T03:25:43;12.57;;;6.30;;
18917;SDS011;9591;52.742;13.650;2023-04-24T03:28:30;12.13;;;7.20;;
18917;SDS011;9591;52.742;13.650;2023-04-24T03:31:21;13.40;;;6.10;;
18917;SDS011;9591;52.742;13.650;2023-04-24T03:34:08;10.27;;;6.30;;
18917;SDS011;9591;52.742;13.650;2023-04-24T03:36:56;8.23;;;5.80;;
18917;SDS011;9591;52.742;13.650;2023-04-24T03:39:44;8.67;;;5.80;;
18917;SDS011;9591;52.742;13.650;2023-04-24T03:42:32;9.03;;;6.03;;
18917;SDS011;9591;52.742;13.650;2023-04-24T03:45:21;10.10;;;6.07;;
18917;SDS011;9591;52.742;13.650;2023-04-24T03:48:09;12.97;;;6.90;;
18917;SDS011;9591;52.742;13.650;2023-04-24T03:50:56;10.33;;;6.90;;
18917;SDS011;9591;52.742;13.650;2023-04-24T03:53:44;10.90;;;6.60;;
18917;SDS011;9591;52.742;13.650;2023-04-24T03:56:35;8.30;;;6.10;;
18917;SDS011;9591;52.742;13.650;2023-04-24T03:59:21;11.50;;;6.97;;
18917;SDS011;9591;52.742;13.650;2023-04-24T04:02:26;9.70;;;6.40;;
18917;SDS011;9591;52.742;13.650;2023-04-24T04:05:14;10.87;;;6.40;;
18917;SDS011;9591;52.742;13.650;2023-04-24T04:08:01;10.80;;;6.30;;
18917;SDS011;9591;52.742;13.650;2023-04-24T04:10:49;10.27;;;6.00;;
18917;SDS011;9591;52.742;13.650;2023-04-24T04:13:35;8.93;;;5.47;;
18917;SDS011;9591;52.742;13.650;2023-04-24T04:16:22;9.53;;;5.77;;
18917;SDS011;9591;52.742;13.650;2023-04-24T04:19:14;9.00;;;5.80;;
18917;SDS011;9591;52.742;13.650;2023-04-24T04:22:01;8.17;;;5.40;;
18917;SDS011;9591;52.742;13.650;2023-04-24T04:24:57;9.57;;;5.83;;
18917;SDS011;9591;52.742;13.650;2023-04-24T04:27:45;9.53;;;5.33;;
18917;SDS011;9591;52.742;13.650;2023-04-24T04:30:32;8.13;;;5.17;;
18917;SDS011;9591;52.742;13.650;2023-04-24T04:33:21;8.20;;;5.60;;
18917;SDS011;9591;52.742;13.650;2023-04-24T04:36:08;8.73;;;5.50;;
18917;SDS011;9591;52.742;13.650;2023-04-24T04:39:00;7.47;;;5.40;;
18917;SDS011;9591;52.742;13.650;2023-04-24T04:42:04;10.90;;;4.83;;
18917;SDS011;9591;52.742;13.650;2023-04-24T04:45:03;10.17;;;5.70;;
18917;SDS011;9591;52.742;13.650;2023-04-24T04:48:01;7.67;;;5.60;;
18917;SDS011;9591;52.742;13.650;2023-04-24T04:50:48;7.53;;;4.97;;
18917;SDS011;9591;52.742;13.650;2023-04-24T04:53:38;10.70;;;5.67;;
18917;SDS011;9591;52.742;13.650;2023-04-24T04:56:25;7.83;;;5.40;;
18917;SDS011;9591;52.742;13.650;2023-04-24T04:59:14;8.80;;;5.63;;
18917;SDS011;9591;52.742;13.650;2023-04-24T05:02:02;7.50;;;5.50;;
18917;SDS011;9591;52.742;13.650;2023-04-24T05:04:49;8.50;;;5.40;;
18917;SDS011;9591;52.742;13.650;2023-04-24T05:07:35;7.87;;;5.03;;
18917;SDS011;9591;52.742;13.650;2023-04-24T05:10:22;8.90;;;5.53;;
18917;SDS011;9591;52.742;13.650;2023-04-24T05:13:12;7.87;;;5.10;;
18917;SDS011;9591;52.742;13.650;2023-04-24T05:15:58;8.37;;;5.20;;
18917;SDS011;9591;52.742;13.650;2023-04-24T05:18:48;9.17;;;5.50;;
18917;SDS011;9591;52.742;13.650;2023-04-24T05:21:39;7.33;;;5.07;;
18917;SDS011;9591;52.742;13.650;2023-04-24T05:24:27;7.50;;;5.00;;
18917;SDS011;9591;52.742;13.650;2023-04-24T05:27:20;8.60;;;4.93;;
18917;SDS011;9591;52.742;13.650;2023-04-24T05:30:07;7.53;;;5.10;;
18917;SDS011;9591;52.742;13.650;2023-04-24T05:32:55;6.63;;;5.00;;
18917;SDS011;9591;52.742;13.650;2023-04-24T05:35:44;7.07;;;4.90;;
18917;SDS011;9591;52.742;13.650;2023-04-24T05:38:32;6.07;;;4.97;;
18917;SDS011;9591;52.742;13.650;2023-04-24T05:41:19;5.83;;;4.77;;
18917;SDS011;9591;52.742;13.650;2023-04-24T05:44:06;8.53;;;5.20;;
18917;SDS011;9591;52.742;13.650;2023-04-24T05:46:53;6.30;;;4.77;;
18917;SDS011;9591;52.742;13.650;2023-04-24T05:49:41;6.97;;;4.60;;
18917;SDS011;9591;52.742;13.650;2023-04-24T05:52:29;5.97;;;4.37;;
18917;SDS011;9591;52.742;13.650;2023-04-24T05:55:16;7.20;;;5.37;;
18917;SDS011;9591;52.742;13.650;2023-04-24T05:58:04;9.87;;;4.87;;
18917;SDS011;9591;52.742;13.650;2023-04-24T06:00:53;7.00;;;4.97;;
18917;SDS011;9591;52.742;13.650;2023-04-24T06:03:40;6.50;;;4.73;;
18917;SDS011;9591;52.742;13.650;2023-04-24T06:06:27;6.77;;;4.60;;
18917;SDS011;9591;52.742;13.650;2023-04-24T06:09:15;6.30;;;4.70;;
18917;SDS011;9591;52.742;13.650;2023-04-24T06:12:03;7.97;;;4.83;;
18917;SDS011;9591;52.742;13.650;2023-04-24T06:15:04;6.83;;;4.90;;
18917;SDS011;9591;52.742;13.650;2023-04-24T06:18:29;5.43;;;4.67;;
18917;SDS011;9591;52.742;13.650;2023-04-24T06:21:16;7.80;;;4.80;;
18917;SDS011;9591;52.742;13.650;2023-04-24T06:24:02;7.60;;;4.47;;
18917;SDS011;9591;52.742;13.650;2023-04-24T06:26:51;9.80;;;4.43;;
18917;SDS011;9591;52.742;13.650;2023-04-24T06:29:38;7.93;;;4.47;;
18917;SDS011;9591;52.742;13.650;2023-04-24T06:32:25;6.47;;;4.90;;
18917;SDS011;9591;52.742;13.650;2023-04-24T06:35:13;8.87;;;4.33;;
18917;SDS011;9591;52.742;13.650;2023-04-24T06:38:00;5.13;;;4.10;;
18917;SDS011;9591;52.742;13.650;2023-04-24T06:40:47;5.97;;;3.87;;
18917;SDS011;9591;52.742;13.650;2023-04-24T06:43:35;5.57;;;3.60;;
18917;SDS011;9591;52.742;13.650;2023-04-24T06:46:21;5.10;;;3.63;;
18917;SDS011;9591;52.742;13.650;2023-04-24T06:49:11;2.87;;;2.57;;
18917;SDS011;9591;52.742;13.650;2023-04-24T06:52:01;4.43;;;2.80;;
18917;SDS011;9591;52.742;13.650;2023-04-24T06:54:48;5.17;;;2.70;;
18917;SDS011;9591;52.742;13.650;2023-04-24T06:57:34;3.33;;;2.50;;
18917;SDS011;9591;52.742;13.650;2023-04-24T07:00:23;3.53;;;2.33;;
18917;SDS011;9591;52.742;13.650;2023-04-24T07:03:10;4.50;;;2.33;;
18917;SDS011;9591;52.742;13.650;2023-04-24T07:05:56;3.67;;;2.40;;
18917;SDS011;9591;52.742;13.650;2023-04-24T07:08:43;4.97;;;2.70;;
18917;SDS011;9591;52.742;13.650;2023-04-24T07:11:30;2.60;;;2.20;;
18917;SDS011;9591;52.742;13.650;2023-04-24T07:14:18;2.43;;;2.10;;
18917;SDS011;9591;52.742;13.650;2023-04-24T07:17:07;1.90;;;1.80;;
18917;SDS011;9591;52.742;13.650;2023-04-24T07:19:53;4.03;;;2.20;;
18917;SDS011;9591;52.742;13.650;2023-04-24T07:22:40;2.37;;;2.17;;
18917;SDS011;9591;52.742;13.650;2023-04-24T07:25:27;2.00;;;1.90;;
18917;SDS011;9591;52.742;13.650;2023-04-24T07:28:14;2.00;;;1.80;;
18917;SDS011;9591;52.742;13.650;2023-04-24T07:31:01;4.20;;;2.00;;
18917;SDS011;9591;52.742;13.650;2023-04-24T07:33:49;2.43;;;1.93;;
18917;SDS011;9591;52.742;13.650;2023-04-24T07:36:35;1.73;;;1.63;;
18917;SDS011;9591;52.742;13.650;2023-04-24T07:39:23;1.90;;;1.40;;
18917;SDS011;9591;52.742;13.650;2023-04-24T07:42:11;3.70;;;1.80;;
18917;SDS011;9591;52.742;13.650;2023-04-24T07:44:57;2.10;;;1.80;;
18917;SDS011;9591;52.742;13.650;2023-04-24T07:47:44;2.83;;;1.60;;
18917;SDS011;9591;52.742;13.650;2023-04-24T07:50:32;1.80;;;1.50;;
18917;SDS011;9591;52.742;13.650;2023-04-24T07:53:19;2.47;;;1.60;;
18917;SDS011;9591;52.742;13.650;2023-04-24T07:56:06;2.30;;;1.50;;
18917;SDS011;9591;52.742;13.650;2023-04-24T07:58:53;2.93;;;1.57;;
18917;SDS011;9591;52.742;13.650;2023-04-24T08:01:40;2.23;;;1.77;;
18917;SDS011;9591;52.742;13.650;2023-04-24T08:04:26;1.47;;;1.30;;
18917;SDS011;9591;52.742;13.650;2023-04-24T08:07:15;3.00;;;1.60;;
18917;SDS011;9591;52.742;13.650;2023-04-24T08:10:02;3.17;;;1.50;;
18917;SDS011;9591;52.742;13.650;2023-04-24T08:12:49;2.47;;;1.40;;
18917;SDS011;9591;52.742;13.650;2023-04-24T08:15:36;3.03;;;1.73;;
18917;SDS011;9591;52.742;13.650;2023-04-24T08:18:23;1.50;;;1.40;;
18917;SDS011;9591;52.742;13.650;2023-04-24T08:21:09;0.90;;;0.90;;
18917;SDS011;9591;52.742;13.650;2023-04-24T08:23:59;1.47;;;1.37;;
18917;SDS011;9591;52.742;13.650;2023-04-24T08:26:49;1.43;;;1.03;;
18917;SDS011;9591;52.742;13.650;2023-04-24T08:29:37;1.40;;;1.30;;
18917;SDS011;9591;52.742;13.650;2023-04-24T08:32:24;1.63;;;0.90;;
18917;SDS011;9591;52.742;13.650;2023-04-24T08:35:12;1.00;;;1.00;;
18917;SDS011;9591;52.742;13.650;2023-04-24T08:37:59;1.27;;;0.97;;
18917;SDS011;9591;52.742;13.650;2023-04-24T08:40:47;2.10;;;1.10;;
18917;SDS011;9591;52.742;13.650;2023-04-24T08:43:35;0.87;;;0.87;;
18917;SDS011;9591;52.742;13.650;2023-04-24T08:46:23;0.90;;;0.90;;
18917;SDS011;9591;52.742;13.650;2023-04-24T08:49:10;5.83;;;0.80;;
18917;SDS011;9591;52.742;13.650;2023-04-24T08:51:58;0.97;;;0.90;;
18917;SDS011;9591;52.742;13.650;2023-04-24T08:54:46;1.33;;;0.70;;
18917;SDS011;9591;52.742;13.650;2023-04-24T08:57:34;0.77;;;0.67;;
18917;SDS011;9591;52.742;13.650;2023-04-24T09:00:25;1.53;;;0.60;;
18917;SDS011;9591;52.742;13.650;2023-04-24T09:03:13;0.70;;;0.70;;
18917;SDS011;9591;52.742;13.650;2023-04-24T09:06:00;0.70;;;0.60;;
18917;SDS011;9591;52.742;13.650;2023-04-24T09:08:48;0.73;;;0.67;;
18917;SDS011;9591;52.742;13.650;2023-04-24T09:11:38;0.80;;;0.80;;
18917;SDS011;9591;52.742;13.650;2023-04-24T09:14:27;0.60;;;0.60;;
18917;SDS011;9591;52.742;13.650;2023-04-24T09:17:17;0.60;;;0.60;;
18917;SDS011;9591;52.742;13.650;2023-04-24T09:20:04;0.70;;;0.70;;
18917;SDS011;9591;52.742;13.650;2023-04-24T09:22:53;0.50;;;0.50;;
18917;SDS011;9591;52.742;13.650;2023-04-24T09:25:41;1.27;;;0.90;;
18917;SDS011;9591;52.742;13.650;2023-04-24T09:28:29;0.97;;;0.87;;
18917;SDS011;9591;52.742;13.650;2023-04-24T09:31:19;0.80;;;0.80;;
18917;SDS011;9591;52.742;13.650;2023-04-24T09:34:07;2.00;;;0.83;;
18917;SDS011;9591;52.742;13.650;2023-04-24T09:36:54;3.43;;;1.00;;
18917;SDS011;9591;52.742;13.650;2023-04-24T09:39:41;1.63;;;0.97;;
18917;SDS011;9591;52.742;13.650;2023-04-24T09:42:28;0.80;;;0.80;;
18917;SDS011;9591;52.742;13.650;2023-04-24T09:45:15;0.90;;;0.90;;
18917;SDS011;9591;52.742;13.650;2023-04-24T09:48:04;2.20;;;0.93;;
18917;SDS011;9591;52.742;13.650;2023-04-24T09:50:51;0.90;;;0.90;;
18917;SDS011;9591;52.742;13.650;2023-04-24T09:53:38;0.70;;;0.70;;
18917;SDS011;9591;52.742;13.650;2023-04-24T09:56:32;1.47;;;1.13;;
18917;SDS011;9591;52.742;13.650;2023-04-24T09:59:19;0.87;;;0.87;;
18917;SDS011;9591;52.742;13.650;2023-04-24T10:02:15;0.70;;;0.70;;
18917;SDS011;9591;52.742;13.650;2023-04-24T10:05:05;2.13;;;0.97;;
18917;SDS011;9591;52.742;13.650;2023-04-24T10:07:55;0.80;;;0.80;;
18917;SDS011;9591;52.742;13.650;2023-04-24T10:10:43;3.47;;;1.10;;
18917;SDS011;9591;52.742;13.650;2023-04-24T10:13:31;0.80;;;0.80;;
18917;SDS011;9591;52.742;13.650;2023-04-24T10:16:19;1.40;;;1.10;;
18917;SDS011;9591;52.742;13.650;2023-04-24T10:19:07;1.80;;;0.90;;
18917;SDS011;9591;52.742;13.650;2023-04-24T10:21:55;1.13;;;0.80;;
18917;SDS011;9591;52.742;13.650;2023-04-24T10:24:43;0.70;;;0.70;;
18917;SDS011;9591;52.742;13.650;2023-04-24T10:27:31;1.20;;;0.90;;
18917;SDS011;9591;52.742;13.650;2023-04-24T10:30:19;0.73;;;0.73;;
18917;SDS011;9591;52.742;13.650;2023-04-24T10:33:07;1.00;;;1.00;;
18917;SDS011;9591;52.742;13.650;2023-04-24T10:35:54;0.80;;;0.80;;
18917;SDS011;9591;52.742;13.650;2023-04-24T10:38:45;1.07;;;0.90;;
18917;SDS011;9591;52.742;13.650;2023-04-24T10:41:36;1.77;;;0.90;;
18917;SDS011;9591;52.742;13.650;2023-04-24T10:44:23;0.80;;;0.80;;
18917;SDS011;9591;52.742;13.650;2023-04-24T10:47:12;0.83;;;0.83;;
18917;SDS011;9591;52.742;13.650;2023-04-24T10:49:59;1.00;;;0.90;;
18917;SDS011;9591;52.742;13.650;2023-04-24T10:52:48;2.53;;;1.03;;
18917;SDS011;9591;52.742;13.650;2023-04-24T10:55:40;0.70;;;0.70;;
18917;SDS011;9591;52.742;13.650;2023-04-24T10:58:35;0.93;;;0.80;;
18917;SDS011;9591;52.742;13.650;2023-04-24T11:01:24;3.10;;;0.90;;
18917;SDS011;9591;52.742;13.650;2023-04-24T11:04:12;3.37;;;1.00;;
18917;SDS011;9591;52.742;13.650;2023-04-24T11:06:59;0.80;;;0.80;;
18917;SDS011;9591;52.742;13.650;2023-04-24T11:09:46;3.50;;;1.23;;
18917;SDS011;9591;52.742;13.650;2023-04-24T11:12:47;1.57;;;1.00;;
18917;SDS011;9591;52.742;13.650;2023-04-24T11:15:33;0.93;;;0.90;;
18917;SDS011;9591;52.742;13.650;2023-04-24T11:18:22;1.20;;;1.10;;
18917;SDS011;9591;52.742;13.650;2023-04-24T11:21:10;1.50;;;0.90;;
18917;SDS011;9591;52.742;13.650;2023-04-24T11:23:57;1.30;;;1.10;;
18917;SDS011;9591;52.742;13.650;2023-04-24T11:26:44;1.10;;;0.93;;
18917;SDS011;9591;52.742;13.650;2023-04-24T11:29:42;5.60;;;1.27;;
18917;SDS011;9591;52.742;13.650;2023-04-24T11:32:33;2.47;;;0.93;;
18917;SDS011;9591;52.742;13.650;2023-04-24T11:35:22;2.00;;;0.87;;
18917;SDS011;9591;52.742;13.650;2023-04-24T11:38:10;1.07;;;0.80;;
18917;SDS011;9591;52.742;13.650;2023-04-24T11:41:08;2.60;;;1.23;;
18917;SDS011;9591;52.742;13.650;2023-04-24T11:43:56;1.10;;;1.00;;
18917;SDS011;9591;52.742;13.650;2023-04-24T11:46:45;3.17;;;0.90;;
18917;SDS011;9591;52.742;13.650;2023-04-24T11:49:32;1.13;;;0.93;;
18917;SDS011;9591;52.742;13.650;2023-04-24T11:52:19;1.10;;;1.10;;
18917;SDS011;9591;52.742;13.650;2023-04-24T11:55:06;1.20;;;1.13;;
18917;SDS011;9591;52.742;13.650;2023-04-24T11:57:55;0.80;;;0.80;;
18917;SDS011;9591;52.742;13.650;2023-04-24T12:00:43;1.73;;;0.90;;
18917;SDS011;9591;52.742;13.650;2023-04-24T12:03:32;1.47;;;1.00;;
18917;SDS011;9591;52.742;13.650;2023-04-24T12:06:19;1.83;;;1.40;;
18917;SDS011;9591;52.742;13.650;2023-04-24T12:09:06;1.30;;;1.20;;
18917;SDS011;9591;52.742;13.650;2023-04-24T12:12:02;1.20;;;0.80;;
18917;SDS011;9591;52.742;13.650;2023-04-24T12:14:53;1.47;;;1.20;;
18917;SDS011;9591;52.742;13.650;2023-04-24T12:17:41;1.00;;;0.90;;
18917;SDS011;9591;52.742;13.650;2023-04-24T12:20:31;0.80;;;0.80;;
18917;SDS011;9591;52.742;13.650;2023-04-24T12:23:34;1.23;;;1.13;;
18917;SDS011;9591;52.742;13.650;2023-04-24T12:26:21;1.10;;;1.00;;
18917;SDS011;9591;52.742;13.650;2023-04-24T12:29:09;2.30;;;1.20;;
18917;SDS011;9591;52.742;13.650;2023-04-24T12:31:57;1.90;;;1.70;;
18917;SDS011;9591;52.742;13.650;2023-04-24T12:34:43;2.27;;;1.53;;
18917;SDS011;9591;52.742;13.650;2023-04-24T12:37:33;1.50;;;1.40;;
18917;SDS011;9591;52.742;13.650;2023-04-24T12:40:21;2.37;;;1.40;;
18917;SDS011;9591;52.742;13.650;2023-04-24T12:43:15;1.17;;;1.10;;
18917;SDS011;9591;52.742;13.650;2023-04-24T12:46:02;1.70;;;1.60;;
18917;SDS011;9591;52.742;13.650;2023-04-24T12:48:50;1.40;;;1.30;;
18917;SDS011;9591;52.742;13.650;2023-04-24T12:51:38;1.00;;;1.00;;
18917;SDS011;9591;52.742;13.650;2023-04-24T12:54:26;1.40;;;1.30;;
18917;SDS011;9591;52.742;13.650;2023-04-24T12:57:19;1.13;;;1.13;;
18917;SDS011;9591;52.742;13.650;2023-04-24T13:00:09;1.33;;;1.20;;
18917;SDS011;9591;52.742;13.650;2023-04-24T13:02:57;1.10;;;1.00;;
18917;SDS011;9591;52.742;13.650;2023-04-24T13:05:52;1.20;;;1.10;;
18917;SDS011;9591;52.742;13.650;2023-04-24T13:08:40;1.63;;;1.10;;
18917;SDS011;9591;52.742;13.650;2023-04-24T13:11:29;1.63;;;1.40;;
18917;SDS011;9591;52.742;13.650;2023-04-24T13:14:15;3.23;;;1.47;;
18917;SDS011;9591;52.742;13.650;2023-04-24T13:17:03;1.37;;;1.23;;
18917;SDS011;9591;52.742;13.650;2023-04-24T13:19:55;4.27;;;1.20;;
18917;SDS011;9591;52.742;13.650;2023-04-24T13:22:42;4.07;;;1.30;;
18917;SDS011;9591;52.742;13.650;2023-04-24T13:25:30;1.10;;;1.10;;
18917;SDS011;9591;52.742;13.650;2023-04-24T13:28:23;1.40;;;1.30;;
18917;SDS011;9591;52.742;13.650;2023-04-24T13:31:12;3.50;;;1.20;;
18917;SDS011;9591;52.742;13.650;2023-04-24T13:34:00;1.07;;;1.07;;
18917;SDS011;9591;52.742;13.650;2023-04-24T13:36:47;0.93;;;0.93;;
18917;SDS011;9591;52.742;13.650;2023-04-24T13:39:36;1.03;;;0.97;;
18917;SDS011;9591;52.742;13.650;2023-04-24T13:42:23;1.80;;;0.90;;
18917;SDS011;9591;52.742;13.650;2023-04-24T13:45:12;1.20;;;1.10;;
18917;SDS011;9591;52.742;13.650;2023-04-24T13:48:09;2.00;;;0.80;;
18917;SDS011;9591;52.742;13.650;2023-04-24T13:50:56;1.00;;;1.00;;
18917;SDS011;9591;52.742;13.650;2023-04-24T13:53:46;0.70;;;0.70;;
18917;SDS011;9591;52.742;13.650;2023-04-24T13:56:32;1.43;;;1.30;;
18917;SDS011;9591;52.742;13.650;2023-04-24T13:59:19;1.10;;;1.00;;
18917;SDS011;9591;52.742;13.650;2023-04-24T14:02:08;2.93;;;0.80;;
18917;SDS011;9591;52.742;13.650;2023-04-24T14:04:56;1.17;;;1.07;;
18917;SDS011;9591;52.742;13.650;2023-04-24T14:07:44;2.20;;;1.00;;
18917;SDS011;9591;52.742;13.650;2023-04-24T14:10:31;1.00;;;0.90;;
18917;SDS011;9591;52.742;13.650;2023-04-24T14:13:17;2.03;;;1.00;;
18917;SDS011;9591;52.742;13.650;2023-04-24T14:16:05;1.93;;;0.90;;
18917;SDS011;9591;52.742;13.650;2023-04-24T14:18:54;5.63;;;1.13;;
18917;SDS011;9591;52.742;13.650;2023-04-24T14:21:41;2.83;;;1.07;;
18917;SDS011;9591;52.742;13.650;2023-04-24T14:24:28;0.87;;;0.87;;
18917;SDS011;9591;52.742;13.650;2023-04-24T14:27:15;2.40;;;1.00;;
18917;SDS011;9591;52.742;13.650;2023-04-24T14:30:02;1.33;;;1.00;;
18917;SDS011;9591;52.742;13.650;2023-04-24T14:32:49;3.17;;;0.83;;
18917;SDS011;9591;52.742;13.650;2023-04-24T14:35:37;2.30;;;1.07;;
18917;SDS011;9591;52.742;13.650;2023-04-24T14:38:24;0.97;;;0.97;;
18917;SDS011;9591;52.742;13.650;2023-04-24T14:41:10;0.97;;;0.97;;
18917;SDS011;9591;52.742;13.650;2023-04-24T14:43:58;0.83;;;0.83;;
18917;SDS011;9591;52.742;13.650;2023-04-24T14:46:45;1.13;;;1.03;;
18917;SDS011;9591;52.742;13.650;2023-04-24T14:49:32;2.40;;;0.90;;
18917;SDS011;9591;52.742;13.650;2023-04-24T14:52:20;2.10;;;0.90;;
18917;SDS011;9591;52.742;13.650;2023-04-24T14:55:07;0.53;;;0.53;;
18917;SDS011;9591;52.742;13.650;2023-04-24T14:57:54;0.70;;;0.70;;
18917;SDS011;9591;52.742;13.650;2023-04-24T15:00:41;0.83;;;0.83;;
18917;SDS011;9591;52.742;13.650;2023-04-24T15:03:27;0.70;;;0.70;;
18917;SDS011;9591;52.742;13.650;2023-04-24T15:06:15;1.03;;;1.00;;
18917;SDS011;9591;52.742;13.650;2023-04-24T15:09:03;0.90;;;0.90;;
18917;SDS011;9591;52.742;13.650;2023-04-24T15:11:50;1.40;;;0.90;;
18917;SDS011;9591;52.742;13.650;2023-04-24T15:14:37;0.90;;;0.90;;
18917;SDS011;9591;52.742;13.650;2023-04-24T15:17:23;1.23;;;0.80;;
18917;SDS011;9591;52.742;13.650;2023-04-24T15:20:10;4.67;;;1.20;;
18917;SDS011;9591;52.742;13.650;2023-04-24T15:22:57;1.80;;;1.00;;
18917;SDS011;9591;52.742;13.650;2023-04-24T15:25:46;1.67;;;1.57;;
18917;SDS011;9591;52.742;13.650;2023-04-24T15:28:33;1.50;;;1.20;;
18917;SDS011;9591;52.742;13.650;2023-04-24T15:31:20;6.13;;;1.00;;
18917;SDS011;9591;52.742;13.650;2023-04-24T15:34:08;0.80;;;0.80;;
18917;SDS011;9591;52.742;13.650;2023-04-24T15:36:55;0.93;;;0.93;;
18917;SDS011;9591;52.742;13.650;2023-04-24T15:39:41;1.47;;;1.37;;
18917;SDS011;9591;52.742;13.650;2023-04-24T15:42:32;1.30;;;1.20;;
18917;SDS011;9591;52.742;13.650;2023-04-24T15:45:19;1.07;;;1.07;;
18917;SDS011;9591;52.742;13.650;2023-04-24T15:48:06;1.20;;;1.10;;
18917;SDS011;9591;52.742;13.650;2023-04-24T15:50:53;1.33;;;1.23;;
18917;SDS011;9591;52.742;13.650;2023-04-24T15:53:39;1.23;;;1.13;;
18917;SDS011;9591;52.742;13.650;2023-04-24T15:56:26;1.60;;;1.33;;
18917;SDS011;9591;52.742;13.650;2023-04-24T15:59:17;1.50;;;1.37;;
18917;SDS011;9591;52.742;13.650;2023-04-24T16:02:04;1.53;;;1.10;;
18917;SDS011;9591;52.742;13.650;2023-04-24T16:04:51;1.40;;;1.30;;
18917;SDS011;9591;52.742;13.650;2023-04-24T16:07:39;1.37;;;1.27;;
18917;SDS011;9591;52.742;13.650;2023-04-24T16:10:25;3.00;;;1.43;;
18917;SDS011;9591;52.742;13.650;2023-04-24T16:13:12;1.83;;;1.10;;
18917;SDS011;9591;52.742;13.650;2023-04-24T16:16:00;2.73;;;1.30;;
18917;SDS011;9591;52.742;13.650;2023-04-24T16:18:47;0.90;;;0.90;;
18917;SDS011;9591;52.742;13.650;2023-04-24T16:21:34;1.10;;;1.10;;
18917;SDS011;9591;52.742;13.650;2023-04-24T16:24:21;1.10;;;1.10;;
18917;SDS011;9591;52.742;13.650;2023-04-24T16:27:08;1.50;;;1.40;;
18917;SDS011;9591;52.742;13.650;2023-04-24T16:29:55;4.10;;;1.23;;
18917;SDS011;9591;52.742;13.650;2023-04-24T16:32:43;2.10;;;1.20;;
18917;SDS011;9591;52.742;13.650;2023-04-24T16:35:30;1.37;;;1.27;;
18917;SDS011;9591;52.742;13.650;2023-04-24T16:38:17;1.20;;;1.10;;
18917;SDS011;9591;52.742;13.650;2023-04-24T16:41:03;1.30;;;1.20;;
18917;SDS011;9591;52.742;13.650;2023-04-24T16:43:50;1.63;;;1.53;;
18917;SDS011;9591;52.742;13.650;2023-04-24T16:46:37;1.70;;;1.60;;
18917;SDS011;9591;52.742;13.650;2023-04-24T16:49:25;1.37;;;1.27;;
18917;SDS011;9591;52.742;13.650;2023-04-24T16:52:15;5.70;;;1.90;;